Kulusuk, Greenland

4:11 PM WGST on October 23, 2014 (GMT -0200)
Kulusuk | Change Station
CLOSE
Current Station
Personal Weather Station
Location: Kulusuk Bygd, EASTGREENLAND
Elevation: 90 ft
Nearby Weather Stations

Elev 90 ft 65.58 °N, 37.19 °W | Updated 50 seconds ago

Mostly Cloudy
Mostly Cloudy
28.2 °F
Feels Like 22 °F
N
6.0
Wind Variable Wind from North
Gusts 6.0 mph

Today
High -- | Low -- °F
--% Chance of Precip.
Yesterday
High -- | Low -- °F
Precip. -- in
7:49 AM 4:34 PM
Waning Crescent, 0% visible
Pressure 29.21 in
Visibility 6.2 miles
Clouds Mostly Cloudy 7700 ft
Windchill 22 °F
Dew Point 19 °F
Humidity 68%
Rainfall 0.00 in
Snow Depth Not available.
UV 0 out of 12
Pollen Not available.
Air Quality Not available.
Flu Activity Not available.
METAR BGKK 231750Z 23003KT 9999 BKN077 M02/M09 Q0989

More Conditions Fewer Conditions

Pressure 29.21 in
Visibility 6.2 miles
Clouds Mostly Cloudy 7700 ft
Windchill 22 °F
Dew Point 19 °F
Humidity 68%
Rainfall 0.00 in
Snow Depth Not available.
UV 0 out of 12
Pollen Not available.
Air Quality Not available.
Flu Activity Not available.
METAR BGKK 231750Z 23003KT 9999 BKN077 M02/M09 Q0989

More Conditions Fewer Conditions

10-Day Weather Forecast

Almanac

Astronomy

Oct. 23, 2014 Rise Set
Actual Time 7:49 AM WGST 4:34 PM WGST
Civil Twilight 6:56 AM WGST 5:28 PM WGST
Nautical Twilight 5:57 AM WGST 6:26 PM WGST
Astronomical Twilight 4:58 AM WGST 7:25 PM WGST
Moon 7:11 AM WGST 4:33 PM WGST
Length of Visible Light 10h 32m
Length of Day
8h 45m
Tomorrow will be 7m 1s shorter.
Waning Crescent, 0% of the Moon is Illuminated
Today
Waning Crescent
Oct 23
New
Oct 30
First Quarter
Nov 6
Full
Nov 14
Last Quarter

Today's Extremes

Country Highs Country Lows

Community

WunderPhotos

Upload Photos

1,764,333 photos uploaded!

WunderBlogs® & News

By Dr. Jeff Masters
Director of Meteorology, Weather Underground
By Kari Strenfel
Meteorologist, Weather Underground
By Christopher C. Burt
Weather Historian, Weather Underground
October 23, 2014
October 23, 2014
October 23, 2014

Nearby

Snow Depth

Not available.

Earthquake Activity

City Distance Mag. Time & Date
No recent earthquake activity has been reported nearby.
Minimum magnitude displayed is 2.5.

Coastal Water Temperatures

Place Temperature
No Stations Reporting

Nearby Weather Stations